Time;durP1;ratioP1;P1;durP2;ratioP2;P2;SDS_P1;SDS_P2;PMS_P1;PMS_P2;Temp;Humidity;BMP_temperature;BMP_pressure;BME280_temperature;BME280_humidity;BME280_pressure;Samples;Min_cycle;Max_cycle;Signal;HPM_P1;HPM_P2
2020/12/14 00:00:11;;;;;;;12.88;8.90;;;;;;;0.16;100.00;99385.83;1752017;81;21175;-69
2020/12/14 00:02:39;;;;;;;9.73;7.25;;;;;;;0.14;100.00;99384.25;1758550;81;21188;-69
2020/12/14 00:05:08;;;;;;;11.12;7.75;;;;;;;0.16;100.00;99394.10;1716705;81;21156;-70
2020/12/14 00:07:36;;;;;;;12.60;8.98;;;;;;;0.14;100.00;99396.78;1733917;81;21616;-70
2020/12/14 00:10:05;;;;;;;14.50;9.35;;;;;;;0.10;100.00;99395.77;1728505;81;21310;-70
2020/12/14 00:12:33;;;;;;;12.40;8.48;;;;;;;0.10;100.00;99392.69;1737834;81;21176;-70
2020/12/14 00:15:00;;;;;;;11.45;8.03;;;;;;;0.09;100.00;99392.78;1753217;81;21169;-69
2020/12/14 00:17:29;;;;;;;11.50;8.23;;;;;;;0.14;100.00;99396.78;1757335;81;21707;-69
2020/12/14 00:19:57;;;;;;;11.95;8.45;;;;;;;0.14;100.00;99398.09;1743231;81;21215;-69
2020/12/14 00:22:33;;;;;;;14.40;10.40;;;;;;;0.14;100.00;99391.58;1745192;81;21179;-68
2020/12/14 00:25:02;;;;;;;15.80;10.35;;;;;;;0.15;100.00;99393.71;1758645;81;21180;-69
2020/12/14 00:27:29;;;;;;;14.87;9.98;;;;;;;0.16;100.00;99395.41;1734286;81;21192;-69
2020/12/14 00:29:57;;;;;;;15.05;9.40;;;;;;;0.17;100.00;99389.28;1748062;81;22566;-69
2020/12/14 00:32:25;;;;;;;13.08;9.75;;;;;;;0.22;100.00;99395.03;1732738;81;21200;-68
2020/12/14 00:34:53;;;;;;;15.28;9.85;;;;;;;0.23;100.00;99399.33;1737769;81;21172;-69
2020/12/14 00:37:21;;;;;;;16.77;11.33;;;;;;;0.19;100.00;99386.96;1743805;81;21322;-68
2020/12/14 00:39:49;;;;;;;14.93;9.75;;;;;;;0.16;100.00;99400.13;1758437;81;21585;-68
2020/12/14 00:42:16;;;;;;;16.35;10.25;;;;;;;0.15;100.00;99403.67;1718721;81;21619;-68
2020/12/14 00:44:44;;;;;;;17.62;11.00;;;;;;;0.16;100.00;99394.93;1758635;81;21132;-68
2020/12/14 00:47:11;;;;;;;18.85;11.90;;;;;;;0.18;100.00;99387.05;1744406;81;21213;-68
2020/12/14 00:49:39;;;;;;;19.25;12.25;;;;;;;0.18;100.00;99399.58;1737728;81;21188;-68
2020/12/14 00:52:07;;;;;;;18.70;12.58;;;;;;;0.17;100.00;99400.98;1716293;81;21180;-68
2020/12/14 00:54:35;;;;;;;16.30;10.88;;;;;;;0.14;100.00;99395.48;1719004;81;21176;-68
2020/12/14 00:57:03;;;;;;;13.70;9.28;;;;;;;0.15;100.00;99395.02;1742974;81;21152;-68
2020/12/14 00:59:31;;;;;;;13.83;9.75;;;;;;;0.19;100.00;99388.73;1736179;81;21203;-68
2020/12/14 01:01:58;;;;;;;15.15;10.05;;;;;;;0.17;100.00;99390.59;1750439;81;21334;-68
2020/12/14 01:04:26;;;;;;;18.57;9.95;;;;;;;0.14;100.00;99392.88;1738462;81;21530;-68
2020/12/14 01:06:55;;;;;;;16.82;11.05;;;;;;;0.13;100.00;99399.47;1751656;81;21176;-69
2020/12/14 01:09:23;;;;;;;14.93;8.98;;;;;;;0.11;100.00;99403.48;1737855;81;21767;-69
2020/12/14 01:11:51;;;;;;;14.10;8.63;;;;;;;0.16;100.00;99396.23;1758206;81;21184;-68
2020/12/14 01:14:20;;;;;;;13.70;9.83;;;;;;;0.16;100.00;99385.83;1738505;81;21640;-69
2020/12/14 01:16:47;;;;;;;13.43;9.08;;;;;;;0.16;100.00;99393.63;1746541;81;21747;-69
2020/12/14 01:19:15;;;;;;;12.35;9.00;;;;;;;0.17;100.00;99391.89;1733508;81;21176;-69
2020/12/14 01:21:44;;;;;;;13.60;8.53;;;;;;;0.15;100.00;99401.52;1730666;82;21180;-69
2020/12/14 01:24:12;;;;;;;11.15;7.72;;;;;;;0.15;100.00;99393.27;1758591;81;21172;-69
2020/12/14 01:26:40;;;;;;;13.35;8.53;;;;;;;0.19;100.00;99385.66;1758571;81;21215;-69
2020/12/14 01:29:08;;;;;;;13.43;8.08;;;;;;;0.21;100.00;99388.62;1753752;81;21313;-69
2020/12/14 01:31:36;;;;;;;13.25;9.55;;;;;;;0.22;100.00;99385.93;1723391;81;21211;-69
2020/12/14 01:34:03;;;;;;;13.25;8.68;;;;;;;0.23;100.00;99387.62;1735276;81;21203;-69
2020/12/14 01:36:30;;;;;;;10.13;6.95;;;;;;;0.23;100.00;99386.79;1754663;81;21163;-69
2020/12/14 01:38:58;;;;;;;10.93;7.85;;;;;;;0.25;100.00;99387.53;1745949;81;21615;-69
2020/12/14 01:41:26;;;;;;;11.35;7.95;;;;;;;0.23;100.00;99388.09;1735197;81;21132;-69
2020/12/14 01:43:53;;;;;;;13.95;8.83;;;;;;;0.16;100.00;99380.62;1748151;81;21302;-68
2020/12/14 01:46:29;;;;;;;12.63;9.15;;;;;;;0.14;100.00;99382.48;1739197;81;21208;-68
2020/12/14 01:49:00;;;;;;;13.32;8.58;;;;;;;0.15;100.00;99380.27;1749014;81;21196;-69
2020/12/14 01:51:31;;;;;;;15.30;7.92;;;;;;;0.16;100.00;99378.50;1721231;81;21156;-68
2020/12/14 01:53:59;;;;;;;12.15;8.40;;;;;;;0.18;100.00;99377.47;1727528;81;21184;-68
2020/12/14 01:56:28;;;;;;;12.43;8.43;;;;;;;0.20;100.00;99382.59;1742985;81;21244;-68
2020/12/14 01:58:56;;;;;;;13.85;9.33;;;;;;;0.20;100.00;99381.29;1742878;81;21152;-68
2020/12/14 02:01:24;;;;;;;13.45;9.03;;;;;;;0.19;100.00;99376.56;1748993;81;21306;-69
2020/12/14 02:03:52;;;;;;;13.20;7.72;;;;;;;0.20;100.00;99376.09;1758662;81;21164;-68
2020/12/14 02:06:20;;;;;;;10.28;7.55;;;;;;;0.26;100.00;99380.92;1725028;81;21318;-68
2020/12/14 02:08:47;;;;;;;12.23;8.53;;;;;;;0.29;100.00;99382.52;1750630;81;21176;-68
2020/12/14 02:11:15;;;;;;;9.50;7.55;;;;;;;0.25;100.00;99376.66;1745954;81;21640;-68
2020/12/14 02:13:42;;;;;;;11.45;7.72;;;;;;;0.25;100.00;99381.03;1719390;81;21326;-68
2020/12/14 02:16:10;;;;;;;11.80;7.95;;;;;;;0.22;100.00;99385.93;1754379;81;21425;-70
2020/12/14 02:18:37;;;;;;;8.33;6.47;;;;;;;0.21;100.00;99380.38;1742325;81;21580;-68
2020/12/14 02:21:05;;;;;;;12.10;8.25;;;;;;;0.25;100.00;99392.73;1732388;81;21219;-68
2020/12/14 02:23:33;;;;;;;13.30;8.88;;;;;;;0.23;100.00;99386.79;1754093;81;21196;-68
2020/12/14 02:26:01;;;;;;;13.25;8.80;;;;;;;0.19;100.00;99390.86;1751589;81;21172;-68
2020/12/14 02:28:29;;;;;;;14.00;9.20;;;;;;;0.21;100.00;99387.31;1744877;81;21196;-68
2020/12/14 02:30:56;;;;;;;13.65;8.90;;;;;;;0.23;100.00;99394.59;1735133;81;21333;-68
2020/12/14 02:33:24;;;;;;;12.45;7.62;;;;;;;0.24;100.00;99389.28;1741123;81;21195;-68
2020/12/14 02:35:53;;;;;;;13.18;8.65;;;;;;;0.29;100.00;99385.95;1753459;81;21192;-68
2020/12/14 02:38:22;;;;;;;13.72;8.58;;;;;;;0.29;100.00;99389.02;1718903;81;21164;-68
2020/12/14 02:40:50;;;;;;;12.85;8.78;;;;;;;0.29;100.00;99389.02;1758636;81;21175;-68
2020/12/14 02:43:18;;;;;;;12.63;8.15;;;;;;;0.26;100.00;99385.29;1758484;81;21145;-68
2020/12/14 02:45:47;;;;;;;12.95;7.85;;;;;;;0.23;100.00;99389.39;1728349;81;21145;-68
2020/12/14 02:48:15;;;;;;;14.90;8.15;;;;;;;0.27;100.00;99386.98;1735528;81;21152;-68
2020/12/14 02:50:44;;;;;;;12.70;8.33;;;;;;;0.30;100.00;99376.37;1758551;81;21176;-68
2020/12/14 02:53:11;;;;;;;9.78;7.20;;;;;;;0.33;100.00;99382.71;1744341;81;21585;-68
2020/12/14 02:55:40;;;;;;;11.18;7.37;;;;;;;0.34;100.00;99383.92;1737901;81;21192;-68
2020/12/14 02:58:07;;;;;;;11.33;7.50;;;;;;;0.31;100.00;99382.80;1727716;81;21169;-68
2020/12/14 03:00:35;;;;;;;9.90;6.50;;;;;;;0.27;100.00;99383.91;1754212;81;21140;-67
2020/12/14 03:03:02;;;;;;;11.85;7.00;;;;;;;0.31;100.00;99384.09;1741496;81;21195;-70
2020/12/14 03:05:30;;;;;;;11.93;8.03;;;;;;;0.34;100.00;99384.39;1729759;81;21140;-70
2020/12/14 03:07:58;;;;;;;11.25;6.90;;;;;;;0.34;100.00;99384.39;1753133;81;21302;-69
2020/12/14 03:10:27;;;;;;;13.25;7.75;;;;;;;0.33;100.00;99384.01;1748315;81;21314;-69
2020/12/14 03:12:54;;;;;;;15.68;7.30;;;;;;;0.30;100.00;99381.14;1734737;81;21247;-69
2020/12/14 03:15:22;;;;;;;9.75;6.60;;;;;;;0.32;100.00;99383.66;1712032;81;21220;-69
2020/12/14 03:17:50;;;;;;;11.33;7.67;;;;;;;0.36;100.00;99381.23;1753121;81;21161;-69
2020/12/14 03:20:18;;;;;;;11.28;8.18;;;;;;;0.37;100.00;99386.80;1743985;81;21319;-70
2020/12/14 03:22:45;;;;;;;10.65;8.10;;;;;;;0.35;100.00;99381.68;1751825;81;21180;-69
2020/12/14 03:25:13;;;;;;;11.65;8.00;;;;;;;0.37;100.00;99381.16;1716840;82;21161;-70
2020/12/14 03:27:41;;;;;;;9.98;6.87;;;;;;;0.36;100.00;99386.44;1747980;81;21192;-69
2020/12/14 03:30:10;;;;;;;9.98;6.85;;;;;;;0.41;100.00;99380.48;1729099;81;21180;-69
2020/12/14 03:32:37;;;;;;;11.88;7.53;;;;;;;0.44;100.00;99382.91;1757744;81;21346;-69
2020/12/14 03:35:05;;;;;;;12.20;7.45;;;;;;;0.46;100.00;99386.25;1737748;81;21168;-69
2020/12/14 03:37:32;;;;;;;11.22;8.00;;;;;;;0.45;100.00;99387.20;1752903;81;21625;-69
2020/12/14 03:39:59;;;;;;;10.48;7.08;;;;;;;0.42;100.00;99389.14;1710426;81;21183;-69
2020/12/14 03:42:29;;;;;;;11.22;7.30;;;;;;;0.38;100.00;99391.09;1758585;81;21137;-70
2020/12/14 03:44:57;;;;;;;10.70;7.60;;;;;;;0.40;100.00;99385.80;1758583;81;21180;-69
2020/12/14 03:47:30;;;;;;;10.23;7.40;;;;;;;0.38;100.00;99388.02;1742830;81;21161;-70
2020/12/14 03:49:59;;;;;;;13.48;8.40;;;;;;;0.37;100.00;99382.89;1758593;81;21168;-70
2020/12/14 03:52:27;;;;;;;10.95;7.85;;;;;;;0.35;100.00;99389.48;1716268;81;21596;-70
2020/12/14 03:54:54;;;;;;;11.55;7.53;;;;;;;0.34;100.00;99387.00;1723593;81;21153;-69
2020/12/14 03:57:21;;;;;;;10.58;7.30;;;;;;;0.34;100.00;99389.13;1731052;81;21196;-70
2020/12/14 03:59:49;;;;;;;10.08;7.28;;;;;;;0.37;100.00;99392.00;1745279;81;21140;-69
2020/12/14 04:02:16;;;;;;;10.32;7.62;;;;;;;0.35;100.00;99391.26;1740054;80;21167;-69
2020/12/14 04:04:44;;;;;;;10.90;7.92;;;;;;;0.37;100.00;99393.30;1746618;81;21566;-70
2020/12/14 04:07:12;;;;;;;10.85;7.70;;;;;;;0.38;100.00;99397.13;1738947;81;21184;-69
2020/12/14 04:09:41;;;;;;;10.80;7.35;;;;;;;0.38;100.00;99402.33;1758412;81;21172;-69
2020/12/14 04:12:09;;;;;;;9.00;6.83;;;;;;;0.40;100.00;99393.61;1758632;81;21140;-69
2020/12/14 04:14:37;;;;;;;9.58;7.10;;;;;;;0.39;100.00;99395.34;1736474;81;21192;-69
2020/12/14 04:17:04;;;;;;;11.68;7.70;;;;;;;0.40;100.00;99391.83;1716292;81;21176;-70
2020/12/14 04:19:32;;;;;;;10.80;7.72;;;;;;;0.41;100.00;99386.98;1732595;81;21302;-69
2020/12/14 04:21:59;;;;;;;11.22;7.33;;;;;;;0.35;100.00;99394.69;1732625;81;21629;-69
2020/12/14 04:24:27;;;;;;;9.60;6.65;;;;;;;0.33;100.00;99395.72;1741565;81;21188;-70
2020/12/14 04:26:55;;;;;;;9.90;6.83;;;;;;;0.33;100.00;99394.41;1723559;81;21230;-70
2020/12/14 04:29:22;;;;;;;10.23;6.67;;;;;;;0.33;100.00;99401.75;1748568;81;21184;-69
2020/12/14 04:31:51;;;;;;;7.87;6.00;;;;;;;0.33;100.00;99406.95;1727978;81;21215;-69
2020/12/14 04:34:19;;;;;;;8.65;6.35;;;;;;;0.30;100.00;99414.09;1748026;81;21605;-70
2020/12/14 04:36:48;;;;;;;8.83;6.15;;;;;;;0.26;100.00;99404.80;1721345;81;21137;-69
2020/12/14 04:39:17;;;;;;;9.43;5.62;;;;;;;0.26;100.00;99415.20;1758461;80;21206;-69
2020/12/14 04:41:44;;;;;;;11.22;7.50;;;;;;;0.29;100.00;99415.87;1758196;81;21184;-69
2020/12/14 04:44:12;;;;;;;7.97;6.30;;;;;;;0.34;100.00;99416.91;1758557;81;21164;-69
2020/12/14 04:46:42;;;;;;;8.05;6.20;;;;;;;0.36;100.00;99415.89;1758491;81;21176;-69
2020/12/14 04:49:10;;;;;;;9.18;6.62;;;;;;;0.37;100.00;99426.69;1736900;81;21172;-70
2020/12/14 04:51:38;;;;;;;9.30;6.37;;;;;;;0.33;100.00;99421.73;1741615;81;21172;-69
2020/12/14 04:54:05;;;;;;;8.60;5.80;;;;;;;0.32;100.00;99415.70;1727572;81;21617;-69
2020/12/14 04:56:41;;;;;;;10.58;7.25;;;;;;;0.35;100.00;99415.50;1750619;81;21164;-69
2020/12/14 04:59:09;;;;;;;9.23;6.58;;;;;;;0.38;100.00;99417.93;1738449;81;21152;-69
2020/12/14 05:01:36;;;;;;;9.68;6.55;;;;;;;0.42;100.00;99421.19;1721117;81;21576;-70
2020/12/14 05:04:04;;;;;;;9.03;6.33;;;;;;;0.40;100.00;99421.75;1718406;81;21290;-69
2020/12/14 05:06:51;;;;;;;9.83;6.08;;;;;;;0.35;100.00;99435.01;1742925;81;21140;-69
2020/12/14 05:09:21;;;;;;;8.33;6.25;;;;;;;0.35;100.00;99442.81;1742916;81;21169;-69
2020/12/14 05:11:50;;;;;;;10.72;7.22;;;;;;;0.38;100.00;99441.34;1751040;81;21132;-69
2020/12/14 05:14:22;;;;;;;9.70;6.87;;;;;;;0.42;100.00;99443.78;1735973;81;21201;-69
2020/12/14 05:16:50;;;;;;;8.85;6.60;;;;;;;0.43;100.00;99451.50;1748913;81;21204;-69
2020/12/14 05:19:24;;;;;;;9.50;6.97;;;;;;;0.45;100.00;99452.25;1737883;81;21195;-69
2020/12/14 05:21:56;;;;;;;9.60;6.42;;;;;;;0.42;100.00;99449.81;1747959;81;21310;-69
2020/12/14 05:24:31;;;;;;;11.22;6.92;;;;;;;0.43;100.00;99447.59;1750953;81;21216;-69
2020/12/14 05:27:00;;;;;;;11.50;7.85;;;;;;;0.46;100.00;99451.30;1747557;81;21180;-69
2020/12/14 05:29:30;;;;;;;14.25;9.25;;;;;;;0.47;100.00;99455.59;1733876;81;21656;-68
2020/12/14 05:32:11;;;;;;;14.38;8.88;;;;;;;0.46;100.00;99450.00;1756093;81;21608;-69
2020/12/14 05:34:40;;;;;;;14.93;8.43;;;;;;;0.46;100.00;99455.20;1743651;81;21191;-69
2020/12/14 05:37:10;;;;;;;14.13;8.13;;;;;;;0.43;100.00;99452.80;1746631;80;21148;-69
2020/12/14 05:39:39;;;;;;;13.78;7.85;;;;;;;0.42;100.00;99451.11;1755808;80;21637;-69
2020/12/14 05:42:21;;;;;;;12.55;7.80;;;;;;;0.36;100.00;99447.58;1753026;81;21176;-69
2020/12/14 05:44:49;;;;;;;13.65;8.45;;;;;;;0.32;100.00;99453.42;1735980;81;21172;-69
2020/12/14 05:47:30;;;;;;;11.40;8.13;;;;;;;0.29;100.00;99464.45;1725978;81;21224;-69
2020/12/14 05:50:00;;;;;;;11.50;7.83;;;;;;;0.27;100.00;99465.02;1753419;81;21711;-69
2020/12/14 05:52:34;;;;;;;11.10;8.00;;;;;;;0.27;100.00;99473.65;1758349;81;21612;-69
2020/12/14 05:55:02;;;;;;;11.95;8.58;;;;;;;0.28;100.00;99475.77;1753978;81;21684;-69
2020/12/14 05:57:37;;;;;;;12.93;8.65;;;;;;;0.26;100.00;99471.95;1718231;81;21341;-69
2020/12/14 06:00:09;;;;;;;15.20;9.48;;;;;;;0.28;100.00;99485.74;1727520;81;21173;-69
2020/12/14 06:02:38;;;;;;;;;;;;;;;0.26;100.00;99479.76;1750424;80;21199;-69
2020/12/14 06:05:06;;;;;;;13.48;8.78;;;;;;;0.26;100.00;99480.23;1757493;81;20330;-69
2020/12/14 06:07:37;;;;;;;14.85;9.33;;;;;;;0.27;100.00;99483.22;1737951;81;21604;-69
2020/12/14 06:10:16;;;;;;;14.47;9.15;;;;;;;0.27;100.00;99485.35;1742827;81;21651;-69
2020/12/14 06:12:47;;;;;;;15.98;9.65;;;;;;;0.32;100.00;99492.91;1758619;81;21374;-69
2020/12/14 06:15:17;;;;;;;13.53;9.93;;;;;;;0.33;100.00;99495.87;1758447;81;21204;-69
2020/12/14 06:17:48;;;;;;;14.20;8.95;;;;;;;0.32;100.00;99504.14;1743102;81;21628;-69
2020/12/14 06:20:22;;;;;;;12.88;8.35;;;;;;;0.30;100.00;99504.70;1745418;81;21201;-69
2020/12/14 06:23:04;;;;;;;16.17;10.32;;;;;;;0.32;100.00;99505.45;1732880;81;21313;-69
2020/12/14 06:25:33;;;;;;;15.83;10.60;;;;;;;0.32;100.00;99506.75;1740357;81;21180;-69
2020/12/14 06:28:29;;;;;;;15.43;10.78;;;;;;;0.34;100.00;99510.56;1756930;80;21238;-69
2020/12/14 06:30:58;;;;;;;13.50;9.65;;;;;;;0.36;100.00;99511.31;1757508;81;21148;-70
2020/12/14 06:33:39;;;;;;;16.70;10.38;;;;;;;0.39;100.00;99512.42;1737916;81;21218;-69
2020/12/14 06:36:23;;;;;;;13.68;9.20;;;;;;;0.40;100.00;99512.81;1737874;81;21192;-69
2020/12/14 06:38:52;;;;;;;15.08;10.25;;;;;;;0.43;100.00;99510.48;1741703;81;21294;-69
2020/12/14 06:41:21;;;;;;;20.35;10.75;;;;;;;0.44;100.00;99507.80;1753658;81;21160;-69
2020/12/14 06:43:52;;;;;;;15.03;10.55;;;;;;;0.48;100.00;99510.59;1743556;81;21621;-69
2020/12/14 06:46:28;;;;;;;15.58;9.73;;;;;;;0.50;100.00;99504.01;1729837;81;21168;-69
2020/12/14 06:48:56;;;;;;;12.93;8.50;;;;;;;0.49;100.00;99494.55;1727635;81;21656;-69
2020/12/14 06:51:24;;;;;;;14.03;9.73;;;;;;;0.54;99.74;99491.19;1728135;81;21329;-69
2020/12/14 06:53:54;;;;;;;15.38;10.15;;;;;;;0.52;99.21;99491.74;1758309;80;21176;-69
2020/12/14 06:56:34;;;;;;;15.10;10.23;;;;;;;0.48;99.54;99496.28;1757538;81;21180;-69
2020/12/14 06:59:03;;;;;;;18.17;11.00;;;;;;;0.49;99.67;99499.27;1747995;81;21148;-70
2020/12/14 07:01:36;;;;;;;15.85;10.32;;;;;;;0.48;99.55;99500.19;1727633;81;21715;-69
2020/12/14 07:04:22;;;;;;;14.15;9.25;;;;;;;0.49;99.53;99497.97;1732613;81;21585;-68
2020/12/14 07:06:50;;;;;;;16.93;12.05;;;;;;;0.54;99.56;99503.76;1744479;81;21180;-70
2020/12/14 07:09:32;;;;;;;19.05;12.55;;;;;;;0.55;99.57;99493.70;1750818;81;21144;-70
2020/12/14 07:12:14;;;;;;;14.95;10.55;;;;;;;0.57;99.51;99496.22;1738644;81;21180;-70
2020/12/14 07:14:50;;;;;;;17.95;12.07;;;;;;;0.56;98.99;99492.80;1753958;81;21184;-70
2020/12/14 07:17:27;;;;;;;16.87;11.25;;;;;;;0.53;98.74;99496.03;1755168;81;21144;-69
2020/12/14 07:19:58;;;;;;;18.05;11.63;;;;;;;0.55;98.86;99501.52;1758704;81;21334;-70
2020/12/14 07:22:35;;;;;;;14.28;11.22;;;;;;;0.55;98.66;99496.31;1748300;81;21587;-68
2020/12/14 07:25:04;;;;;;;18.05;13.53;;;;;;;0.54;98.71;99502.45;1746223;81;21181;-69
2020/12/14 07:27:33;;;;;;;21.93;15.32;;;;;;;0.53;98.86;99509.88;1758449;81;21613;-69
2020/12/14 07:30:08;;;;;;;17.12;11.63;;;;;;;0.53;99.00;99509.88;1731194;81;21164;-70
2020/12/14 07:32:36;;;;;;;15.98;11.10;;;;;;;0.57;98.79;99515.27;1736167;81;21188;-70
2020/12/14 07:35:06;;;;;;;18.75;12.35;;;;;;;0.57;98.07;99523.55;1748082;81;21136;-70
2020/12/14 07:37:37;;;;;;;18.37;13.43;;;;;;;0.52;98.35;99516.46;1748090;80;21176;-70
2020/12/14 07:40:10;;;;;;;16.45;11.60;;;;;;;0.50;98.53;99528.25;1753558;81;21640;-69
2020/12/14 07:42:44;;;;;;;;;;;;;;;0.52;98.75;99536.81;1742035;81;21172;-70
2020/12/14 07:45:11;;;;;;;18.37;12.03;;;;;;;0.53;98.73;99543.70;1742713;81;20173;-70
2020/12/14 07:47:40;;;;;;;16.42;11.50;;;;;;;0.56;98.71;99537.47;1758192;81;21364;-70
2020/12/14 07:50:13;;;;;;;17.82;12.73;;;;;;;0.61;98.30;99538.05;1758165;81;21198;-70
2020/12/14 07:52:41;;;;;;;22.00;15.15;;;;;;;0.65;98.38;99543.45;1734863;81;21152;-69
2020/12/14 07:55:10;;;;;;;19.05;13.68;;;;;;;0.67;98.50;99542.90;1753175;80;21140;-71
2020/12/14 07:57:41;;;;;;;17.85;12.98;;;;;;;0.70;98.46;99545.34;1738546;81;21298;-71
2020/12/14 08:00:12;;;;;;;15.00;10.10;;;;;;;0.72;98.10;99547.86;1731794;80;21664;-71
2020/12/14 08:02:43;;;;;;;17.92;12.53;;;;;;;0.73;97.58;99556.88;1722652;81;21241;-71
2020/12/14 08:05:16;;;;;;;16.97;12.33;;;;;;;0.76;97.49;99561.06;1758227;81;21176;-70
2020/12/14 08:07:48;;;;;;;17.60;12.43;;;;;;;0.77;97.78;99558.37;1758556;81;21160;-70
2020/12/14 08:10:29;;;;;;;20.90;14.65;;;;;;;0.81;97.62;99557.73;1737716;80;21227;-70
2020/12/14 08:12:51;;;;;;;;;;;;;;;0.80;97.53;99553.45;1760989;81;21306;-71
2020/12/14 08:15:19;;;;;;;17.90;12.23;;;;;;;0.80;97.16;99552.61;1732149;81;20240;-71
2020/12/14 08:17:47;;;;;;;18.87;12.98;;;;;;;0.80;96.84;99547.41;1753046;81;21298;-70
2020/12/14 08:20:36;;;;;;;20.60;14.13;;;;;;;0.80;97.07;99543.50;1747234;81;21652;-70
2020/12/14 08:23:17;;;;;;;19.62;14.80;;;;;;;0.82;97.03;99537.27;1743854;80;21276;-70
2020/12/14 08:25:50;;;;;;;19.82;14.13;;;;;;;0.83;97.45;99531.14;1737659;81;21137;-70
2020/12/14 08:28:30;;;;;;;20.90;14.87;;;;;;;0.85;97.50;99533.66;1736776;80;21688;-70
2020/12/14 08:30:58;;;;;;;14.40;10.18;;;;;;;0.84;97.48;99536.74;1736712;81;21128;-70
2020/12/14 08:33:26;;;;;;;13.38;9.88;;;;;;;0.88;97.44;99533.02;1732540;80;21188;-70
2020/12/14 08:35:56;;;;;;;15.63;9.90;;;;;;;0.94;96.61;99524.84;1742563;81;21164;-70
2020/12/14 08:38:27;;;;;;;16.42;10.88;;;;;;;1.00;96.94;99516.30;1753651;80;21309;-69
2020/12/14 08:41:02;;;;;;;13.72;10.32;;;;;;;1.07;96.98;99520.22;1712726;81;21164;-70
2020/12/14 08:43:35;;;;;;;14.80;10.90;;;;;;;1.10;95.94;99513.03;1730082;82;21585;-69
2020/12/14 08:46:10;;;;;;;;;;;;;;;1.12;95.62;99520.31;1749595;80;21435;-70
2020/12/14 08:48:56;;;;;;;16.52;11.38;;;;;;;1.13;96.06;99525.88;1727913;81;20163;-69
2020/12/14 08:54:27;;;;;;;22.15;11.22;;;;;;;1.20;96.04;99526.81;1891340;75;23656;-70
2020/12/14 08:56:55;;;;;;;18.52;12.33;;;;;;;1.18;96.03;99522.16;1787360;80;21332;-70
2020/12/14 08:59:23;;;;;;;17.77;13.13;;;;;;;1.19;95.97;99515.56;1775213;80;21368;-70
2020/12/14 09:01:57;;;;;;;21.42;14.43;;;;;;;1.18;95.84;99514.34;1779086;80;21130;-70
2020/12/14 09:04:35;;;;;;;19.37;13.65;;;;;;;1.17;96.20;99510.91;1755309;80;21292;-69
2020/12/14 09:07:04;;;;;;;19.65;13.43;;;;;;;1.19;96.34;99505.14;1775021;80;21576;-69
2020/12/14 09:09:38;;;;;;;17.42;12.13;;;;;;;1.20;96.12;99513.34;1794430;79;21352;-69
2020/12/14 09:12:10;;;;;;;15.68;10.20;;;;;;;1.23;95.91;99511.00;1791497;79;21146;-70
2020/12/14 09:14:38;;;;;;;12.23;8.83;;;;;;;1.31;95.81;99504.85;1756255;79;21501;-69
2020/12/14 09:17:16;;;;;;;18.65;12.28;;;;;;;1.37;95.37;99507.11;1796098;78;21575;-69
2020/12/14 09:19:51;;;;;;;17.73;11.28;;;;;;;1.42;94.88;99497.24;1771732;80;21218;-70
2020/12/14 09:22:22;;;;;;;15.13;10.90;;;;;;;1.50;94.68;99488.47;1762566;80;21551;-70
2020/12/14 09:24:50;;;;;;;18.75;12.78;;;;;;;1.52;93.68;99493.59;1782412;80;21192;-69
2020/12/14 09:27:18;;;;;;;18.32;12.82;;;;;;;1.47;93.48;99493.03;1773587;80;21865;-71
2020/12/14 09:29:47;;;;;;;19.35;12.60;;;;;;;1.43;93.23;99494.16;1764068;80;21190;-71
2020/12/14 09:32:21;;;;;;;17.37;12.45;;;;;;;1.43;93.36;99499.38;1767810;80;21163;-70
2020/12/14 09:34:48;;;;;;;19.52;13.28;;;;;;;1.46;93.57;99506.98;1787052;80;21185;-69
2020/12/14 09:37:16;;;;;;;16.90;11.80;;;;;;;1.44;93.19;99502.34;1776654;80;21728;-69
2020/12/14 09:39:46;;;;;;;16.42;10.90;;;;;;;1.44;93.29;99503.64;1762254;79;21598;-69
2020/12/14 09:42:14;;;;;;;15.78;10.38;;;;;;;1.39;93.22;99504.41;1778635;80;21644;-70
2020/12/14 09:44:42;;;;;;;14.03;10.13;;;;;;;1.36;93.53;99508.85;1800442;79;21186;-70
2020/12/14 09:47:09;;;;;;;14.38;10.10;;;;;;;1.32;93.11;99513.88;1749175;80;21237;-70
2020/12/14 09:49:39;;;;;;;14.55;9.58;;;;;;;1.30;93.13;99514.44;1810591;79;21140;-70
2020/12/14 09:52:08;;;;;;;17.25;12.70;;;;;;;1.32;93.15;99519.56;1802301;79;21151;-70
2020/12/14 09:54:35;;;;;;;13.72;10.23;;;;;;;1.25;92.94;99523.00;1808983;79;21152;-70
2020/12/14 09:57:02;;;;;;;12.75;9.45;;;;;;;1.13;93.54;99527.19;1806364;79;21155;-70
2020/12/14 09:59:31;;;;;;;18.62;11.65;;;;;;;1.06;94.29;99531.08;1748375;81;21744;-71
2020/12/14 10:01:59;;;;;;;12.95;9.45;;;;;;;1.04;94.62;99538.16;1808917;79;21330;-70
2020/12/14 10:04:30;;;;;;;17.67;10.10;;;;;;;1.01;94.57;99538.35;1808662;79;21160;-71
2020/12/14 10:06:57;;;;;;;13.38;9.70;;;;;;;0.98;94.37;99537.22;1811094;79;21286;-71
2020/12/14 10:09:25;;;;;;;16.73;10.53;;;;;;;1.02;95.48;99538.70;1796348;79;21224;-70
2020/12/14 10:11:53;;;;;;;12.55;9.50;;;;;;;1.05;95.30;99530.73;1795081;79;21541;-71
2020/12/14 10:14:20;;;;;;;14.07;10.32;;;;;;;1.07;95.18;99534.55;1715701;79;21228;-70
2020/12/14 10:16:50;;;;;;;13.30;9.80;;;;;;;1.12;95.21;99527.27;1811303;79;21160;-69
2020/12/14 10:19:19;;;;;;;13.13;10.10;;;;;;;1.16;94.56;99536.13;1802569;79;21151;-70
2020/12/14 10:21:47;;;;;;;14.68;10.15;;;;;;;1.17;94.28;99529.14;1795291;79;21135;-71
2020/12/14 10:24:15;;;;;;;13.43;9.38;;;;;;;1.17;94.29;99530.45;1795274;78;21178;-71
2020/12/14 10:26:43;;;;;;;13.35;8.45;;;;;;;1.19;94.24;99529.05;1803237;79;21147;-71
2020/12/14 10:29:10;;;;;;;11.78;9.00;;;;;;;1.24;94.49;99527.85;1800686;79;21171;-70
2020/12/14 10:31:42;;;;;;;14.05;10.05;;;;;;;1.26;94.28;99523.86;1803134;79;21373;-70
2020/12/14 10:34:12;;;;;;;12.73;9.88;;;;;;;1.29;94.31;99523.20;1808303;79;21150;-69
2020/12/14 10:36:45;;;;;;;13.98;9.93;;;;;;;1.32;93.82;99520.87;1795294;79;21146;-70
2020/12/14 10:39:13;;;;;;;13.45;9.40;;;;;;;1.35;93.62;99522.00;1810091;79;21124;-70
2020/12/14 10:41:41;;;;;;;15.20;9.65;;;;;;;1.34;92.96;99522.44;1809134;79;21117;-70
2020/12/14 10:44:09;;;;;;;13.85;9.03;;;;;;;1.32;92.89;99523.00;1800507;79;21160;-71
2020/12/14 10:46:36;;;;;;;14.05;10.00;;;;;;;1.34;93.19;99522.44;1811299;79;21164;-71
2020/12/14 10:49:04;;;;;;;15.45;11.78;;;;;;;1.35;93.26;99518.09;1810959;79;21557;-70
2020/12/14 10:51:32;;;;;;;15.70;12.05;;;;;;;1.36;93.64;99514.53;1767184;79;21179;-70
2020/12/14 10:53:59;;;;;;;20.70;14.00;;;;;;;1.31;93.53;99515.27;1811137;79;21152;-70
2020/12/14 10:56:29;;;;;;;19.87;14.53;;;;;;;1.24;94.16;99514.83;1785351;79;21715;-70
2020/12/14 10:58:57;;;;;;;20.35;14.15;;;;;;;1.20;94.99;99509.44;1801300;79;21157;-70
2020/12/14 11:01:25;;;;;;;21.95;14.25;;;;;;;1.22;95.05;99515.86;1797539;79;21628;-70
2020/12/14 11:03:54;;;;;;;21.68;15.90;;;;;;;1.23;94.82;99524.86;1803338;79;21898;-70
2020/12/14 11:06:21;;;;;;;28.67;20.12;;;;;;;1.27;94.93;99524.21;1800809;79;21152;-70
2020/12/14 11:08:49;;;;;;;24.30;18.02;;;;;;;1.25;94.87;99529.51;1799876;79;21285;-70
2020/12/14 11:11:17;;;;;;;33.85;22.22;;;;;;;1.23;95.18;99525.33;1804093;79;21317;-71
2020/12/14 11:13:45;;;;;;;30.52;21.17;;;;;;;1.24;95.34;99523.95;1807316;79;21151;-70
2020/12/14 11:16:13;;;;;;;24.85;18.15;;;;;;;1.26;95.38;99523.38;1797913;79;21120;-70
2020/12/14 11:18:40;;;;;;;23.02;16.27;;;;;;;1.27;95.21;99525.52;1797899;79;21572;-70
2020/12/14 11:21:10;;;;;;;24.37;17.65;;;;;;;1.24;94.85;99518.73;1795155;79;21618;-70
2020/12/14 11:23:38;;;;;;;24.23;17.10;;;;;;;1.23;94.89;99517.05;1777873;79;21580;-70
2020/12/14 11:26:07;;;;;;;28.55;17.48;;;;;;;1.21;94.73;99518.91;1778808;79;21131;-70
2020/12/14 11:28:35;;;;;;;27.87;19.15;;;;;;;1.20;95.35;99522.45;1797962;79;21139;-70
2020/12/14 11:31:04;;;;;;;29.10;19.25;;;;;;;1.21;95.90;99519.38;1797992;79;21191;-70
2020/12/14 11:33:32;;;;;;;27.15;19.77;;;;;;;1.23;95.66;99518.82;1808508;79;21275;-70
2020/12/14 11:36:01;;;;;;;30.15;21.25;;;;;;;1.20;95.59;99522.90;1807971;79;21218;-70
2020/12/14 11:38:30;;;;;;;27.82;19.57;;;;;;;1.19;95.70;99529.89;1811338;79;21561;-71
2020/12/14 11:40:59;;;;;;;28.83;18.02;;;;;;;1.19;95.65;99530.36;1805294;79;21131;-70